createdAt,value
2023-05-16T00:02:17.814Z,13.70
2023-05-16T00:04:47.525Z,13.80
2023-05-16T00:07:15.764Z,13.70
2023-05-16T00:09:43.862Z,13.70
2023-05-16T00:12:13.404Z,13.70
2023-05-16T00:14:41.968Z,13.70
2023-05-16T00:17:12.265Z,13.80
2023-05-16T00:19:42.071Z,13.70
2023-05-16T00:22:11.468Z,13.70
2023-05-16T00:24:39.863Z,13.60
2023-05-16T00:27:07.998Z,13.70
2023-05-16T00:29:37.561Z,13.60
2023-05-16T00:32:08.703Z,13.60
2023-05-16T00:34:37.303Z,13.60
2023-05-16T00:37:07.944Z,13.60
2023-05-16T00:39:36.068Z,13.60
2023-05-16T00:42:04.588Z,13.60
2023-05-16T00:44:33.009Z,13.50
2023-05-16T00:47:03.736Z,13.50
2023-05-16T00:49:32.114Z,13.50
2023-05-16T00:52:00.534Z,13.40
2023-05-16T00:54:29.299Z,13.40
2023-05-16T00:56:57.994Z,13.40
2023-05-16T00:59:26.702Z,13.40
2023-05-16T01:01:55.977Z,13.30
2023-05-16T01:04:26.642Z,13.30
2023-05-16T01:06:57.137Z,13.20
2023-05-16T01:09:25.611Z,13.20
2023-05-16T01:12:02.826Z,13.20
2023-05-16T01:14:39.798Z,13.10
2023-05-16T01:17:17.701Z,13.00
2023-05-16T01:20:02.186Z,13.00
2023-05-16T01:22:38.456Z,12.90
2023-05-16T01:25:27.224Z,12.80
2023-05-16T01:27:58.116Z,12.80
2023-05-16T01:30:26.614Z,12.70
2023-05-16T01:32:54.884Z,12.70
2023-05-16T01:35:23.471Z,12.60
2023-05-16T01:37:59.028Z,12.50
2023-05-16T01:40:34.667Z,12.50
2023-05-16T01:43:09.797Z,12.40
2023-05-16T01:45:43.328Z,12.30
2023-05-16T01:48:21.650Z,12.40
2023-05-16T01:50:56.105Z,12.30
2023-05-16T01:53:29.231Z,12.30
2023-05-16T01:55:59.409Z,12.30
2023-05-16T01:58:32.974Z,12.30
2023-05-16T02:01:03.752Z,12.20
2023-05-16T02:03:32.375Z,12.20
2023-05-16T02:06:04.282Z,12.10
2023-05-16T02:08:32.675Z,12.10
2023-05-16T02:11:00.766Z,12.00
2023-05-16T02:13:30.238Z,12.00
2023-05-16T02:15:58.319Z,12.00
2023-05-16T02:18:28.333Z,12.10
2023-05-16T02:20:56.477Z,12.10
2023-05-16T02:23:25.132Z,12.00
2023-05-16T02:25:54.994Z,12.00
2023-05-16T02:28:24.128Z,11.80
2023-05-16T02:30:59.249Z,11.70
2023-05-16T02:33:27.514Z,11.80
2023-05-16T02:35:56.060Z,11.70
2023-05-16T02:38:27.286Z,11.70
2023-05-16T02:40:57.150Z,11.70
2023-05-16T02:43:25.383Z,11.70
2023-05-16T02:45:53.571Z,11.70
2023-05-16T02:48:23.092Z,11.60
2023-05-16T02:50:52.014Z,11.60
2023-05-16T02:53:20.435Z,11.60
2023-05-16T02:55:51.566Z,11.50
2023-05-16T02:58:20.788Z,11.60
2023-05-16T03:00:48.904Z,11.50
2023-05-16T03:03:17.127Z,11.50
2023-05-16T03:05:47.432Z,11.50
2023-05-16T03:08:15.622Z,11.50
2023-05-16T03:10:43.770Z,11.50
2023-05-16T03:13:11.843Z,11.60
2023-05-16T03:15:40.014Z,11.60
2023-05-16T03:18:08.252Z,11.60
2023-05-16T03:20:36.320Z,11.60
2023-05-16T03:23:08.337Z,11.60
2023-05-16T03:25:38.363Z,11.50
2023-05-16T03:28:07.863Z,11.50
2023-05-16T03:30:36.130Z,11.50
2023-05-16T03:33:05.302Z,11.60
2023-05-16T03:35:34.077Z,11.50
2023-05-16T03:38:02.339Z,11.50
2023-05-16T03:40:32.073Z,11.40
2023-05-16T03:43:00.685Z,11.40
2023-05-16T03:45:29.012Z,11.40
2023-05-16T03:47:57.349Z,11.40
2023-05-16T03:50:25.732Z,11.30
2023-05-16T03:52:54.183Z,11.30
2023-05-16T03:55:23.115Z,11.20
2023-05-16T03:57:53.190Z,11.20
2023-05-16T04:00:21.637Z,11.20
2023-05-16T04:02:49.918Z,11.20
2023-05-16T04:05:18.153Z,11.20
2023-05-16T04:07:46.346Z,11.20
2023-05-16T04:10:16.589Z,11.10
2023-05-16T04:12:45.567Z,11.20
2023-05-16T04:15:15.166Z,11.20
2023-05-16T04:17:43.371Z,11.20
2023-05-16T04:20:12.483Z,11.20
2023-05-16T04:22:40.658Z,11.20
2023-05-16T04:25:12.224Z,11.10
2023-05-16T04:27:40.583Z,11.10
2023-05-16T04:30:11.297Z,11.10
2023-05-16T04:32:40.842Z,11.10
2023-05-16T04:35:10.088Z,11.10
2023-05-16T04:37:38.358Z,11.10
2023-05-16T04:40:07.818Z,10.90
2023-05-16T04:42:36.022Z,10.90
2023-05-16T04:45:06.514Z,11.00
2023-05-16T04:47:34.992Z,11.00
2023-05-16T04:50:04.846Z,11.00
2023-05-16T04:52:33.263Z,11.00
2023-05-16T04:55:02.024Z,10.80
2023-05-16T04:57:30.082Z,10.90
2023-05-16T04:59:58.254Z,10.90
2023-05-16T05:02:27.105Z,10.90
2023-05-16T05:04:55.216Z,11.00
2023-05-16T05:07:28.043Z,11.00
2023-05-16T05:09:56.970Z,11.00
2023-05-16T05:12:28.522Z,11.00
2023-05-16T05:14:56.818Z,11.00
2023-05-16T05:17:25.466Z,10.90
2023-05-16T05:19:53.827Z,10.80
2023-05-16T05:22:21.983Z,10.90
2023-05-16T05:24:51.831Z,10.90
2023-05-16T05:27:19.989Z,11.00
2023-05-16T05:29:48.114Z,11.10
2023-05-16T05:32:16.206Z,11.00
2023-05-16T05:34:44.498Z,11.00
2023-05-16T05:37:12.550Z,10.90
2023-05-16T05:39:41.049Z,10.90
2023-05-16T05:42:12.013Z,11.00
2023-05-16T05:44:43.094Z,11.10
2023-05-16T05:47:11.493Z,11.10
2023-05-16T05:49:39.745Z,11.20
2023-05-16T05:52:08.121Z,11.20
2023-05-16T05:54:36.303Z,11.10
2023-05-16T05:57:04.598Z,11.20
2023-05-16T05:59:34.035Z,11.20
2023-05-16T06:02:02.241Z,11.20
2023-05-16T06:04:30.396Z,11.10
2023-05-16T06:06:58.601Z,11.10
2023-05-16T06:09:26.702Z,11.10
2023-05-16T06:11:54.831Z,11.10
2023-05-16T06:14:25.288Z,11.20
2023-05-16T06:16:57.252Z,11.30
2023-05-16T06:19:25.826Z,11.20
2023-05-16T06:21:54.026Z,11.40
2023-05-16T06:24:22.180Z,11.50
2023-05-16T06:26:50.758Z,11.40
2023-05-16T06:29:18.776Z,11.40
2023-05-16T06:31:48.148Z,11.50
2023-05-16T06:34:17.569Z,11.70
2023-05-16T06:36:45.596Z,11.60
2023-05-16T06:39:13.757Z,11.70
2023-05-16T06:41:41.881Z,11.70
2023-05-16T06:44:17.026Z,11.60
2023-05-16T06:46:45.165Z,11.70
2023-05-16T06:49:17.463Z,11.80
2023-05-16T06:51:45.721Z,11.90
2023-05-16T06:54:15.087Z,12.00
2023-05-16T06:56:43.228Z,12.00
2023-05-16T06:59:11.333Z,11.90
2023-05-16T07:01:39.565Z,11.80
2023-05-16T07:04:07.935Z,11.60
2023-05-16T07:06:37.705Z,11.60
2023-05-16T07:09:05.942Z,11.70
2023-05-16T07:11:34.257Z,11.60
2023-05-16T07:14:02.404Z,11.50
2023-05-16T07:16:30.741Z,11.60
2023-05-16T07:18:58.976Z,11.60
2023-05-16T07:21:29.542Z,11.60
2023-05-16T07:24:00.384Z,11.70
2023-05-16T07:26:28.456Z,11.90
2023-05-16T07:28:56.639Z,12.10
2023-05-16T07:31:25.283Z,12.20
2023-05-16T07:33:53.564Z,12.20
2023-05-16T07:36:21.727Z,12.30
2023-05-16T07:38:49.908Z,12.40
2023-05-16T07:41:19.831Z,12.40
2023-05-16T07:43:48.041Z,12.50
2023-05-16T07:46:16.230Z,12.60
2023-05-16T07:48:44.340Z,12.90
2023-05-16T07:51:12.495Z,13.10
2023-05-16T07:53:41.152Z,13.00
2023-05-16T07:56:11.560Z,12.90
2023-05-16T07:58:44.000Z,12.90
2023-05-16T08:01:12.478Z,12.40
2023-05-16T08:03:40.681Z,12.30
2023-05-16T08:06:09.184Z,12.20
2023-05-16T08:08:38.066Z,12.10
2023-05-16T08:11:06.710Z,12.00
2023-05-16T08:13:35.056Z,12.30
2023-05-16T08:16:04.932Z,12.30
2023-05-16T08:18:33.245Z,12.30
2023-05-16T08:21:01.494Z,12.20
2023-05-16T08:23:29.754Z,12.20
2023-05-16T08:25:58.740Z,12.00
2023-05-16T08:28:29.450Z,12.00
2023-05-16T08:30:57.639Z,11.90
2023-05-16T08:33:27.110Z,12.00
2023-05-16T08:35:55.260Z,11.90
2023-05-16T08:38:23.466Z,12.00
2023-05-16T08:40:51.992Z,12.00
2023-05-16T08:43:20.299Z,11.90
2023-05-16T08:45:48.795Z,11.90
2023-05-16T08:48:23.961Z,12.00
2023-05-16T08:50:53.709Z,12.30
2023-05-16T08:53:27.907Z,12.30
2023-05-16T08:55:56.627Z,12.20
2023-05-16T08:58:24.929Z,12.10
2023-05-16T09:00:53.148Z,12.30
2023-05-16T09:03:24.262Z,12.20
2023-05-16T09:05:53.871Z,12.30
2023-05-16T09:08:22.034Z,12.50
2023-05-16T09:10:50.170Z,12.70
2023-05-16T09:13:18.515Z,12.90
2023-05-16T09:15:46.738Z,13.00
2023-05-16T09:18:15.096Z,13.10
2023-05-16T09:20:47.816Z,12.80
2023-05-16T09:23:24.950Z,12.40
2023-05-16T09:25:55.610Z,12.40
2023-05-16T09:28:23.877Z,12.70
2023-05-16T09:30:54.186Z,12.90
2023-05-16T09:33:24.047Z,12.70
2023-05-16T09:35:58.166Z,12.90
2023-05-16T09:38:28.925Z,12.80
2023-05-16T09:40:57.326Z,12.60
2023-05-16T09:43:28.664Z,12.60
2023-05-16T09:46:00.904Z,12.70
2023-05-16T09:48:29.361Z,12.80
2023-05-16T09:51:03.330Z,12.90
2023-05-16T09:53:34.294Z,12.80
2023-05-16T09:56:04.196Z,12.80
2023-05-16T09:58:35.928Z,12.90
2023-05-16T10:01:04.630Z,13.10
2023-05-16T10:03:35.654Z,13.10
2023-05-16T10:06:05.786Z,12.60
2023-05-16T10:08:36.734Z,12.50
2023-05-16T10:11:06.785Z,12.50
2023-05-16T10:13:36.744Z,12.60
2023-05-16T10:16:09.017Z,12.60
2023-05-16T10:18:39.384Z,12.60
2023-05-16T10:21:11.596Z,12.50
2023-05-16T10:23:43.837Z,12.40
2023-05-16T10:26:14.735Z,12.50
2023-05-16T10:28:43.494Z,12.50
2023-05-16T10:31:12.625Z,12.50
2023-05-16T10:33:41.846Z,12.60
2023-05-16T10:36:11.067Z,12.70
2023-05-16T10:38:41.522Z,12.90
2023-05-16T10:41:11.321Z,13.20
2023-05-16T10:43:40.530Z,13.60
2023-05-16T10:46:11.908Z,13.90
2023-05-16T10:48:44.184Z,13.80
2023-05-16T10:51:36.510Z,13.60
2023-05-16T10:54:10.483Z,13.30
2023-05-16T10:56:38.794Z,12.90
2023-05-16T10:59:24.441Z,12.80
2023-05-16T11:01:55.203Z,12.70
2023-05-16T11:04:23.550Z,12.40
2023-05-16T11:06:53.767Z,11.90
2023-05-16T11:09:28.371Z,11.80
2023-05-16T11:12:04.015Z,11.80
2023-05-16T11:14:38.859Z,12.00
2023-05-16T11:17:12.668Z,12.20
2023-05-16T11:19:43.431Z,12.60
2023-05-16T11:22:27.347Z,13.00
2023-05-16T11:25:00.259Z,13.40
2023-05-16T11:27:30.876Z,13.50
2023-05-16T11:30:03.793Z,13.30
2023-05-16T11:32:35.020Z,13.20
2023-05-16T11:35:04.597Z,12.90
2023-05-16T11:37:32.959Z,13.10
2023-05-16T11:40:05.388Z,13.40
2023-05-16T11:42:37.324Z,13.40
2023-05-16T11:45:07.548Z,13.30
2023-05-16T11:47:37.513Z,13.50
2023-05-16T11:50:07.835Z,13.70
2023-05-16T11:52:36.398Z,14.00
2023-05-16T11:55:08.135Z,14.10
2023-05-16T11:57:36.522Z,14.50
2023-05-16T12:00:08.133Z,15.20
2023-05-16T12:02:36.520Z,15.70
2023-05-16T12:05:10.096Z,15.70
2023-05-16T12:07:38.683Z,15.60
2023-05-16T12:10:09.796Z,15.50
2023-05-16T12:12:39.655Z,14.90
2023-05-16T12:15:10.748Z,14.80
2023-05-16T12:17:41.216Z,14.80
2023-05-16T12:20:14.331Z,14.90
2023-05-16T12:22:43.391Z,14.90
2023-05-16T12:25:27.728Z,14.90
2023-05-16T12:27:56.722Z,14.90
2023-05-16T12:30:25.916Z,14.60
2023-05-16T12:32:59.938Z,14.60
2023-05-16T12:35:34.969Z,14.50
2023-05-16T12:38:06.029Z,14.60
2023-05-16T12:40:37.541Z,15.00
2023-05-16T12:43:06.026Z,15.30
2023-05-16T12:45:35.541Z,15.40
2023-05-16T12:48:12.807Z,15.60
2023-05-16T12:50:41.958Z,15.80
2023-05-16T12:53:14.682Z,16.10
2023-05-16T12:55:44.936Z,16.30
2023-05-16T12:58:13.837Z,16.30
2023-05-16T13:00:42.144Z,16.60
2023-05-16T13:03:10.731Z,17.00
2023-05-16T13:05:39.033Z,16.90
2023-05-16T13:08:07.438Z,17.30
2023-05-16T13:10:36.165Z,17.50
2023-05-16T13:13:05.736Z,17.30
2023-05-16T13:15:36.512Z,17.20
2023-05-16T13:18:04.888Z,16.50
2023-05-16T13:20:33.135Z,16.30
2023-05-16T13:23:01.754Z,16.10
2023-05-16T13:25:30.237Z,16.20
2023-05-16T13:27:58.612Z,16.50
2023-05-16T13:30:28.948Z,16.90
2023-05-16T13:32:57.246Z,17.30
2023-05-16T13:35:26.612Z,17.40
2023-05-16T13:37:55.025Z,17.50
2023-05-16T13:40:23.211Z,17.90
2023-05-16T13:42:51.679Z,18.00
2023-05-16T13:45:19.903Z,18.00
2023-05-16T13:47:49.567Z,17.90
2023-05-16T13:50:17.870Z,17.70
2023-05-16T13:52:47.487Z,17.40
2023-05-16T13:55:15.823Z,16.80
2023-05-16T13:57:46.207Z,16.80
2023-05-16T14:00:42.740Z,16.80
2023-05-16T14:03:07.090Z,17.00
2023-05-16T14:05:35.874Z,17.00
2023-05-16T14:08:04.697Z,17.20
2023-05-16T14:10:33.051Z,17.90
2023-05-16T14:13:01.571Z,18.00
2023-05-16T14:15:30.181Z,17.70
2023-05-16T14:17:59.573Z,17.30
2023-05-16T14:20:29.273Z,16.90
2023-05-16T14:22:57.916Z,16.90
2023-05-16T14:25:27.135Z,16.80
2023-05-16T14:27:55.590Z,16.80
2023-05-16T14:30:25.160Z,17.00
2023-05-16T14:32:53.540Z,16.60
2023-05-16T14:35:21.861Z,16.30
2023-05-16T14:37:51.856Z,16.30
2023-05-16T14:40:21.664Z,16.40
2023-05-16T14:42:50.766Z,16.30
2023-05-16T14:45:19.908Z,16.40
2023-05-16T14:47:48.701Z,16.60
2023-05-16T14:50:17.257Z,17.30
2023-05-16T14:52:45.684Z,17.70
2023-05-16T14:55:15.726Z,17.70
2023-05-16T14:57:45.521Z,17.40
2023-05-16T15:00:17.018Z,17.60
2023-05-16T15:02:46.348Z,17.70
2023-05-16T15:05:14.883Z,17.50
2023-05-16T15:07:44.406Z,16.90
2023-05-16T15:10:14.280Z,17.20
2023-05-16T15:12:43.343Z,17.20
2023-05-16T15:15:14.945Z,17.50
2023-05-16T15:17:45.316Z,17.40
2023-05-16T15:20:13.868Z,17.40
2023-05-16T15:22:42.243Z,17.10
2023-05-16T15:25:11.914Z,17.50
2023-05-16T15:27:41.393Z,17.50
2023-05-16T15:30:10.736Z,17.20
2023-05-16T15:32:39.064Z,16.90
2023-05-16T15:35:07.863Z,16.90
2023-05-16T15:37:36.208Z,16.90
2023-05-16T15:40:08.989Z,16.90
2023-05-16T15:42:38.093Z,16.70
2023-05-16T15:45:09.374Z,16.80
2023-05-16T15:47:37.577Z,17.10
2023-05-16T15:50:06.568Z,17.20
2023-05-16T15:52:35.912Z,16.80
2023-05-16T15:55:04.563Z,17.10
2023-05-16T15:57:32.876Z,17.40
2023-05-16T16:00:01.210Z,17.40
2023-05-16T16:02:30.904Z,17.10
2023-05-16T16:05:01.881Z,17.00
2023-05-16T16:07:30.139Z,16.90
2023-05-16T16:09:59.647Z,16.70
2023-05-16T16:12:31.288Z,16.80
2023-05-16T16:14:59.846Z,17.00
2023-05-16T16:17:28.567Z,17.00
2023-05-16T16:19:58.195Z,16.90
2023-05-16T16:22:26.575Z,16.70
2023-05-16T16:24:54.943Z,16.70
2023-05-16T16:27:25.374Z,17.00
2023-05-16T16:29:53.644Z,17.00
2023-05-16T16:32:23.868Z,16.90
2023-05-16T16:34:52.257Z,17.30
2023-05-16T16:37:22.249Z,17.30
2023-05-16T16:39:50.448Z,17.30
2023-05-16T16:42:18.645Z,16.80
2023-05-16T16:44:47.130Z,16.60
2023-05-16T16:47:15.814Z,16.50
2023-05-16T16:49:45.383Z,16.60
2023-05-16T16:52:13.561Z,17.00
2023-05-16T16:54:43.114Z,17.30
2023-05-16T16:57:11.310Z,17.30
2023-05-16T16:59:39.477Z,16.90
2023-05-16T17:02:08.292Z,16.80
2023-05-16T17:04:36.669Z,16.70
2023-05-16T17:07:04.832Z,16.50
2023-05-16T17:09:33.255Z,16.50
2023-05-16T17:12:07.942Z,16.50
2023-05-16T17:14:36.520Z,16.40
2023-05-16T17:17:04.871Z,16.30
2023-05-16T17:19:33.114Z,16.20
2023-05-16T17:22:01.291Z,16.20
2023-05-16T17:24:29.544Z,16.20
2023-05-16T17:26:58.079Z,16.10
2023-05-16T17:29:28.226Z,15.90
2023-05-16T17:31:56.678Z,15.70
2023-05-16T17:34:25.035Z,15.60
2023-05-16T17:36:53.502Z,15.50
2023-05-16T17:39:21.874Z,15.40
2023-05-16T17:41:50.163Z,15.30
2023-05-16T17:44:18.961Z,15.20
2023-05-16T17:46:48.739Z,15.10
2023-05-16T17:49:17.213Z,15.00
2023-05-16T17:51:49.862Z,14.90
2023-05-16T17:54:19.255Z,14.90
2023-05-16T17:56:51.337Z,15.00
2023-05-16T17:59:20.333Z,15.00
2023-05-16T18:01:52.683Z,14.90
2023-05-16T18:04:22.497Z,14.90
2023-05-16T18:06:52.395Z,14.90
2023-05-16T18:09:21.187Z,14.70
2023-05-16T18:11:50.540Z,14.60
2023-05-16T18:14:19.248Z,14.50
2023-05-16T18:16:47.686Z,14.50
2023-05-16T18:19:17.476Z,14.30
2023-05-16T18:21:46.200Z,14.30
2023-05-16T18:24:16.540Z,14.10
2023-05-16T18:26:48.261Z,14.00
2023-05-16T18:29:17.302Z,14.00
2023-05-16T18:31:46.571Z,13.90
2023-05-16T18:34:16.128Z,13.80
2023-05-16T18:36:46.321Z,13.70
2023-05-16T18:39:17.937Z,13.60
2023-05-16T18:41:48.195Z,13.50
2023-05-16T18:44:17.739Z,13.50
2023-05-16T18:46:47.350Z,13.40
2023-05-16T18:49:19.269Z,13.30
2023-05-16T18:51:47.460Z,13.20
2023-05-16T18:54:15.649Z,13.20
2023-05-16T18:56:44.028Z,13.00
2023-05-16T18:59:12.548Z,13.00
2023-05-16T19:01:40.863Z,12.90
2023-05-16T19:04:09.450Z,12.80
2023-05-16T19:06:40.190Z,12.80
2023-05-16T19:09:09.270Z,12.70
2023-05-16T19:11:37.929Z,12.60
2023-05-16T19:14:08.032Z,12.60
2023-05-16T19:16:38.950Z,12.60
2023-05-16T19:19:09.736Z,12.50
2023-05-16T19:21:39.805Z,12.50
2023-05-16T19:24:09.181Z,12.40
2023-05-16T19:26:37.320Z,12.30
2023-05-16T19:29:05.570Z,12.30
2023-05-16T19:31:33.912Z,12.30
2023-05-16T19:34:02.231Z,12.10
2023-05-16T19:36:31.961Z,12.00
2023-05-16T19:39:01.586Z,12.00
2023-05-16T19:41:29.916Z,12.10
2023-05-16T19:43:58.104Z,12.00
2023-05-16T19:46:26.832Z,11.90
2023-05-16T19:48:55.287Z,11.90
2023-05-16T19:51:40.272Z,11.80
2023-05-16T19:54:11.355Z,11.80
2023-05-16T19:56:39.561Z,11.80
2023-05-16T19:59:07.813Z,11.70
2023-05-16T20:01:36.163Z,11.60
2023-05-16T20:04:05.441Z,11.60
2023-05-16T20:06:33.776Z,11.50
2023-05-16T20:09:06.228Z,11.50
2023-05-16T20:11:36.748Z,11.50
2023-05-16T20:14:05.163Z,11.40
2023-05-16T20:16:33.484Z,11.40
2023-05-16T20:19:01.779Z,11.40
2023-05-16T20:21:30.172Z,11.30
2023-05-16T20:23:59.291Z,11.20
2023-05-16T20:26:30.114Z,11.10
2023-05-16T20:28:59.845Z,11.00
2023-05-16T20:31:31.314Z,11.10
2023-05-16T20:33:59.940Z,11.10
2023-05-16T20:36:28.313Z,11.00
2023-05-16T20:38:56.484Z,11.00
2023-05-16T20:41:24.685Z,10.90
2023-05-16T20:43:52.940Z,10.80
2023-05-16T20:46:22.528Z,10.80
2023-05-16T20:48:50.863Z,10.60
2023-05-16T20:51:19.159Z,10.60
2023-05-16T20:53:47.379Z,10.50
2023-05-16T20:56:15.555Z,10.50
2023-05-16T20:58:44.146Z,10.50
2023-05-16T21:01:12.560Z,10.50
2023-05-16T21:03:42.365Z,10.60
2023-05-16T21:06:10.747Z,10.50
2023-05-16T21:08:39.286Z,10.40
2023-05-16T21:11:07.606Z,10.50
2023-05-16T21:13:35.803Z,10.40
2023-05-16T21:16:04.144Z,10.20
2023-05-16T21:18:32.648Z,10.20
2023-05-16T21:21:02.355Z,10.10
2023-05-16T21:23:32.786Z,10.10
2023-05-16T21:26:00.940Z,10.00
2023-05-16T21:28:31.157Z,9.90
2023-05-16T21:31:03.049Z,9.80
2023-05-16T21:33:31.260Z,9.70
2023-05-16T21:36:00.410Z,9.70
2023-05-16T21:38:29.911Z,9.70
2023-05-16T21:40:58.505Z,9.70
2023-05-16T21:43:26.702Z,9.70
2023-05-16T21:45:54.898Z,9.60
2023-05-16T21:48:23.343Z,9.60
2023-05-16T21:50:52.094Z,9.60
2023-05-16T21:53:20.350Z,9.60
2023-05-16T21:55:49.900Z,9.60
2023-05-16T21:58:19.057Z,9.60
2023-05-16T22:00:47.466Z,9.50
2023-05-16T22:03:19.041Z,9.50
2023-05-16T22:05:47.725Z,9.50
2023-05-16T22:08:15.888Z,9.60
2023-05-16T22:10:44.091Z,9.60
2023-05-16T22:13:15.841Z,9.60
2023-05-16T22:15:49.303Z,9.60
2023-05-16T22:18:24.137Z,9.60
2023-05-16T22:20:52.385Z,9.50
2023-05-16T22:23:20.592Z,9.50
2023-05-16T22:25:48.720Z,9.50
2023-05-16T22:28:18.489Z,9.50
2023-05-16T22:30:46.605Z,9.50
2023-05-16T22:33:14.840Z,9.40
2023-05-16T22:35:43.085Z,9.40
2023-05-16T22:38:11.232Z,9.30
2023-05-16T22:40:41.018Z,9.40
2023-05-16T22:43:10.329Z,9.30
2023-05-16T22:45:39.821Z,9.20
2023-05-16T22:48:08.140Z,9.10
2023-05-16T22:50:36.615Z,9.10
2023-05-16T22:53:04.695Z,9.20
2023-05-16T22:55:33.881Z,9.20
2023-05-16T22:58:01.993Z,9.20
2023-05-16T23:00:30.556Z,9.20
2023-05-16T23:03:00.194Z,9.10
2023-05-16T23:05:30.734Z,9.10
2023-05-16T23:07:59.105Z,9.00
2023-05-16T23:10:27.224Z,9.00
2023-05-16T23:12:55.386Z,8.90
2023-05-16T23:15:23.701Z,8.80
2023-05-16T23:17:51.981Z,8.80
2023-05-16T23:20:22.435Z,8.70
2023-05-16T23:22:50.523Z,8.70
2023-05-16T23:25:18.758Z,8.70
2023-05-16T23:27:47.243Z,8.60
2023-05-16T23:30:16.222Z,8.60
2023-05-16T23:32:44.449Z,8.50
2023-05-16T23:35:12.532Z,8.50
2023-05-16T23:37:42.006Z,8.50
2023-05-16T23:40:11.062Z,8.50
2023-05-16T23:42:40.704Z,8.50
2023-05-16T23:45:12.203Z,8.50
2023-05-16T23:47:40.406Z,8.50
2023-05-16T23:50:09.505Z,8.70
2023-05-16T23:52:37.896Z,8.70
2023-05-16T23:55:08.644Z,8.70
2023-05-16T23:57:38.600Z,8.70
